Time;durP1;ratioP1;P1;durP2;ratioP2;P2;SDS_P1;SDS_P2;PMS_P1;PMS_P2;Temp;Humidity;BMP_temperature;BMP_pressure;BME280_temperature;BME280_humidity;BME280_pressure;Samples;Min_cycle;Max_cycle;Signal;HPM_P1;HPM_P2
2022/03/31 00:00:35;;;;;;;5.33;1.97;;;8.70;94.30;8.00;96503.00;;;;5033628;28;20173;-73
2022/03/31 00:03:04;;;;;;;1.30;1.23;;;8.70;94.60;8.00;96495.00;;;;5016403;28;20220;-73
2022/03/31 00:05:33;;;;;;;3.67;1.97;;;8.70;94.80;8.10;96496.00;;;;5033682;28;20229;-73
2022/03/31 00:08:02;;;;;;;4.20;1.77;;;8.70;95.00;8.00;96494.00;;;;5033493;28;20349;-73
2022/03/31 00:10:32;;;;;;;1.57;1.50;;;8.70;95.10;8.00;96495.00;;;;5016187;28;20636;-73
2022/03/31 00:13:01;;;;;;;2.87;2.57;;;8.70;95.40;7.80;96489.00;;;;5015916;28;20548;-73
2022/03/31 00:15:29;;;;;;;2.37;2.27;;;8.60;94.90;7.80;96480.00;;;;5033287;28;20303;-73
2022/03/31 00:17:59;;;;;;;2.10;2.00;;;8.60;95.60;7.90;96493.00;;;;5033152;28;20231;-74
2022/03/31 00:20:26;;;;;;;2.40;2.20;;;8.50;95.60;7.90;96486.00;;;;5033601;28;20200;-73
2022/03/31 00:22:52;;;;;;;2.13;2.03;;;8.50;95.50;7.80;96485.00;;;;5033358;28;20212;-73
2022/03/31 00:25:19;;;;;;;1.50;1.40;;;8.60;95.00;7.80;96471.00;;;;5033305;28;20211;-73
2022/03/31 00:27:46;;;;;;;1.43;1.43;;;8.50;95.10;7.90;96484.00;;;;5033302;28;20220;-73
2022/03/31 00:30:14;;;;;;;2.03;1.87;;;8.50;94.90;7.80;96475.00;;;;5015660;28;20300;-73
2022/03/31 00:32:42;;;;;;;2.00;1.90;;;8.50;94.60;7.80;96470.00;;;;5034352;28;20269;-73
2022/03/31 00:35:12;;;;;;;1.37;1.33;;;8.50;94.40;7.70;96460.00;;;;5037245;28;20220;-73
2022/03/31 00:37:40;;;;;;;1.57;1.47;;;8.50;94.20;7.80;96460.00;;;;5036603;28;20739;-73
2022/03/31 00:40:09;;;;;;;4.83;3.03;;;8.50;94.40;7.90;96461.00;;;;5019169;28;20208;-73
2022/03/31 00:42:40;;;;;;;2.27;2.07;;;8.50;93.90;7.90;96453.00;;;;5036690;28;20513;-73
2022/03/31 00:45:13;;;;;;;3.40;2.10;;;8.50;93.50;7.80;96437.00;;;;5036649;28;20220;-73
2022/03/31 00:47:42;;;;;;;1.30;1.30;;;8.50;93.10;7.90;96452.00;;;;5036596;28;20180;-73
2022/03/31 00:50:12;;;;;;;1.37;1.37;;;8.50;93.30;7.90;96448.00;;;;5036318;28;20204;-73
2022/03/31 00:52:41;;;;;;;2.23;2.07;;;8.60;93.00;7.80;96450.00;;;;5002797;28;20328;-73
2022/03/31 00:55:13;;;;;;;5.37;3.13;;;8.50;93.00;7.90;96437.00;;;;5036345;28;20280;-73
2022/03/31 00:57:42;;;;;;;2.87;2.67;;;8.50;92.70;7.80;96448.00;;;;5036086;28;20294;-72
2022/03/31 01:00:12;;;;;;;1.63;1.53;;;8.50;92.70;7.80;96446.00;;;;5036531;28;20284;-74
2022/03/31 01:02:39;;;;;;;1.93;1.83;;;8.40;92.70;7.80;96443.00;;;;5020044;28;20203;-73
2022/03/31 01:05:07;;;;;;;1.33;1.33;;;8.50;92.90;7.90;96442.00;;;;5037248;28;20252;-73
2022/03/31 01:07:35;;;;;;;1.80;1.70;;;8.50;92.90;7.80;96442.00;;;;5037414;28;20204;-74
2022/03/31 01:10:07;;;;;;;2.47;2.27;;;8.50;92.60;7.90;96442.00;;;;5036855;28;20672;-74
2022/03/31 01:12:35;;;;;;;2.63;2.43;;;8.50;92.60;7.80;96444.00;;;;5036989;28;20209;-75
2022/03/31 01:15:08;;;;;;;2.70;2.50;;;8.50;92.00;7.80;96431.00;;;;5019080;28;20286;-75
2022/03/31 01:17:37;;;;;;;2.60;1.93;;;8.40;91.90;7.70;96432.00;;;;5018585;28;20255;-73
2022/03/31 01:20:07;;;;;;;2.03;1.03;;;8.40;91.30;7.70;96427.00;;;;5036020;28;20200;-74
2022/03/31 01:22:35;;;;;;;1.70;1.63;;;8.40;91.00;7.70;96416.00;;;;5036085;28;20229;-73
2022/03/31 01:25:05;;;;;;;1.10;1.10;;;8.30;90.90;7.70;96423.00;;;;5018600;28;20224;-74
2022/03/31 01:27:35;;;;;;;1.93;1.83;;;8.40;91.10;7.60;96423.00;;;;5035979;28;20286;-74
2022/03/31 01:30:07;;;;;;;1.83;1.73;;;8.40;90.50;7.60;96416.00;;;;5035889;28;20681;-74
2022/03/31 01:32:33;;;;;;;1.33;1.33;;;8.30;90.60;7.50;96418.00;;;;5035778;28;20307;-73
2022/03/31 01:35:00;;;;;;;1.33;1.23;;;8.30;90.30;7.40;96416.00;;;;5035836;28;20271;-74
2022/03/31 01:37:26;;;;;;;1.10;1.10;;;8.20;89.90;7.60;96409.00;;;;5035725;28;20231;-73
2022/03/31 01:39:53;;;;;;;1.10;1.10;;;8.20;89.90;7.40;96415.00;;;;5018361;28;20207;-73
2022/03/31 01:42:22;;;;;;;1.00;1.00;;;8.10;89.70;7.50;96410.00;;;;5035747;28;20200;-73
2022/03/31 01:44:49;;;;;;;1.83;1.73;;;8.20;89.90;7.50;96410.00;;;;5034338;28;20645;-73
2022/03/31 01:47:16;;;;;;;1.80;1.70;;;8.20;89.90;7.60;96408.00;;;;5035685;28;20289;-73
2022/03/31 01:49:42;;;;;;;1.73;1.63;;;8.30;89.20;7.60;96403.00;;;;5035652;28;20213;-72
2022/03/31 01:52:11;;;;;;;1.97;1.87;;;8.30;88.60;7.60;96414.00;;;;5035555;28;20212;-73
2022/03/31 01:54:38;;;;;;;1.63;1.53;;;8.30;88.80;7.70;96394.00;;;;5035981;28;20304;-73
2022/03/31 01:57:05;;;;;;;1.97;1.63;;;8.30;88.00;7.60;96354.00;;;;5035644;28;20323;-74
2022/03/31 01:59:37;;;;;;;1.40;1.40;;;8.30;87.50;7.40;96392.00;;;;5035500;28;20575;-73
2022/03/31 02:02:05;;;;;;;1.07;1.07;;;8.10;88.30;7.40;96392.00;;;;5018089;28;20299;-73
2022/03/31 02:04:32;;;;;;;2.30;2.03;;;8.10;88.70;7.50;96394.00;;;;5035328;28;20220;-73
2022/03/31 02:06:59;;;;;;;1.40;1.30;;;8.10;89.10;7.50;96395.00;;;;5035198;28;20204;-73
2022/03/31 02:09:26;;;;;;;1.70;1.60;;;8.10;89.20;7.60;96390.00;;;;5035270;28;20205;-73
2022/03/31 02:11:53;;;;;;;1.97;1.87;;;8.20;88.30;7.50;96389.00;;;;5035170;28;20221;-73
2022/03/31 02:14:20;;;;;;;1.73;1.63;;;8.10;88.50;7.40;96383.00;;;;5035250;28;20276;-72
2022/03/31 02:16:50;;;;;;;1.53;1.43;;;8.10;88.80;7.20;96378.00;;;;5035029;28;20221;-73
2022/03/31 02:19:17;;;;;;;1.13;1.13;;;7.90;88.40;7.20;96378.00;;;;5035197;28;20709;-72
2022/03/31 02:21:43;;;;;;;1.73;1.67;;;7.90;88.80;7.20;96374.00;;;;5035172;28;20193;-73
2022/03/31 02:24:10;;;;;;;2.00;1.90;;;7.90;88.60;7.10;96378.00;;;;5034880;28;20235;-74
2022/03/31 02:26:37;;;;;;;0.93;0.93;;;7.80;88.60;7.20;96379.00;;;;5034892;28;20745;-74
2022/03/31 02:29:05;;;;;;;2.10;1.97;;;7.80;88.30;6.90;96369.00;;;;5034834;28;20199;-74
2022/03/31 02:31:32;;;;;;;1.73;1.63;;;7.70;88.10;6.80;96365.00;;;;5035003;28;20231;-73
2022/03/31 02:34:00;;;;;;;1.63;1.57;;;7.60;89.00;6.90;96364.00;;;;5034871;28;20520;-74
2022/03/31 02:36:26;;;;;;;2.47;2.27;;;7.50;89.60;6.90;96358.00;;;;5034826;28;20250;-74
2022/03/31 02:38:53;;;;;;;1.10;1.10;;;7.60;89.50;6.80;96368.00;;;;5034911;28;20227;-73
2022/03/31 02:41:20;;;;;;;2.73;2.50;;;7.50;89.60;6.60;96364.00;;;;5034868;28;20207;-73
2022/03/31 02:43:46;;;;;;;1.40;1.30;;;7.40;90.40;6.50;96359.00;;;;5034621;28;20311;-73
2022/03/31 02:46:13;;;;;;;1.80;1.70;;;7.30;90.80;6.50;96361.00;;;;5034720;28;20242;-73
2022/03/31 02:48:40;;;;;;;1.73;1.63;;;7.30;91.70;6.60;96360.00;;;;5034663;28;20203;-73
2022/03/31 02:51:07;;;;;;;1.93;1.83;;;7.30;91.90;6.50;96348.00;;;;5017248;28;20225;-73
2022/03/31 02:56:18;;;;;;;2.40;2.17;;;7.30;92.00;6.60;96353.00;;;;5034064;28;20638;-73
2022/03/31 02:58:45;;;;;;;5.40;3.13;;;7.30;92.00;6.60;96345.00;;;;5034523;28;20632;-72
2022/03/31 03:01:12;;;;;;;1.60;1.50;;;7.30;91.70;6.30;96349.00;;;;5034673;28;20272;-74
2022/03/31 03:03:38;;;;;;;2.13;1.97;;;7.20;91.70;6.40;96338.00;;;;5020634;28;20259;-74
2022/03/31 03:06:09;;;;;;;1.10;1.10;;;7.10;92.30;6.40;96331.00;;;;5035003;28;20201;-73
2022/03/31 03:08:35;;;;;;;2.00;1.90;;;7.10;92.70;6.50;96334.00;;;;5034531;28;20202;-74
2022/03/31 03:11:02;;;;;;;2.63;2.43;;;7.20;92.30;6.30;96331.00;;;;5034274;28;20231;-74
2022/03/31 03:13:29;;;;;;;1.77;1.67;;;7.10;92.40;6.30;96335.00;;;;5034231;28;20226;-73
2022/03/31 03:15:58;;;;;;;2.20;2.10;;;7.00;92.90;6.20;96333.00;;;;5034234;28;20214;-74
2022/03/31 03:18:24;;;;;;;2.10;2.00;;;7.00;93.00;6.30;96327.00;;;;5017018;28;20238;-74
2022/03/31 03:20:51;;;;;;;1.50;1.50;;;7.00;93.20;6.30;96324.00;;;;5034244;28;20297;-74
2022/03/31 03:23:18;;;;;;;1.93;1.87;;;7.00;93.50;6.40;96331.00;;;;5017067;28;20599;-74
2022/03/31 03:25:44;;;;;;;1.97;1.87;;;7.10;92.20;6.30;96325.00;;;;5034207;28;20286;-73
2022/03/31 03:28:11;;;;;;;1.80;1.70;;;7.00;92.40;6.20;96329.00;;;;5034105;28;20234;-74
2022/03/31 03:30:37;;;;;;;3.10;2.90;;;6.90;92.40;6.20;96320.00;;;;5034047;28;20219;-74
2022/03/31 03:33:06;;;;;;;2.00;1.83;;;6.90;93.30;6.00;96318.00;;;;5033927;28;20675;-74
2022/03/31 03:35:33;;;;;;;1.83;1.67;;;6.80;92.80;6.20;96327.00;;;;5034047;28;20252;-74
2022/03/31 03:38:00;;;;;;;3.47;3.20;;;6.80;93.00;6.30;96332.00;;;;5016622;28;20226;-73
2022/03/31 03:40:29;;;;;;;1.60;1.50;;;7.00;92.60;6.10;96315.00;;;;5034069;28;20210;-74
2022/03/31 03:42:56;;;;;;;1.63;1.53;;;6.90;92.30;6.10;96324.00;;;;5033706;28;20667;-74
2022/03/31 03:45:23;;;;;;;2.57;2.40;;;6.80;92.50;6.10;96323.00;;;;5033978;28;20219;-74
2022/03/31 03:47:50;;;;;;;2.27;2.10;;;6.80;92.50;5.90;96327.00;;;;5034005;28;20201;-74
2022/03/31 03:50:17;;;;;;;1.33;1.13;;;6.70;93.30;6.20;96321.00;;;;5033708;28;20224;-74
2022/03/31 03:52:45;;;;;;;1.50;1.50;;;6.80;93.10;6.10;96320.00;;;;5033721;28;20228;-74
2022/03/31 03:55:12;;;;;;;1.43;1.40;;;6.80;92.20;6.20;96326.00;;;;5033702;28;20203;-74
2022/03/31 03:57:40;;;;;;;1.80;1.70;;;6.80;92.70;6.20;96329.00;;;;5033728;28;20223;-74
2022/03/31 04:00:09;;;;;;;1.67;1.57;;;6.80;91.90;6.20;96325.00;;;;5033777;28;20215;-74
2022/03/31 04:02:39;;;;;;;1.57;1.53;;;6.90;91.30;6.20;96319.00;;;;5016294;28;20275;-74
2022/03/31 04:05:06;;;;;;;1.67;1.57;;;6.80;91.30;6.20;96316.00;;;;5033834;28;20623;-75
2022/03/31 04:07:33;;;;;;;1.73;1.63;;;6.90;91.60;6.10;96332.00;;;;5032901;28;20199;-75
2022/03/31 04:09:59;;;;;;;2.27;1.87;;;6.80;91.80;6.20;96318.00;;;;5033562;28;20231;-74
2022/03/31 04:12:26;;;;;;;1.97;1.87;;;6.80;92.10;6.20;96317.00;;;;5033585;28;20284;-75
2022/03/31 04:14:53;;;;;;;1.30;1.30;;;6.80;92.40;6.20;96324.00;;;;5034004;28;20276;-75
2022/03/31 04:17:22;;;;;;;1.83;1.73;;;6.80;91.50;6.00;96322.00;;;;5033764;28;20282;-75
2022/03/31 04:19:48;;;;;;;1.93;1.83;;;6.80;90.90;6.00;96325.00;;;;5017094;28;20312;-75
2022/03/31 04:22:15;;;;;;;2.53;2.33;;;6.80;91.70;6.20;96326.00;;;;5034219;28;20215;-74
2022/03/31 04:24:41;;;;;;;2.00;1.90;;;6.80;91.90;6.20;96317.00;;;;5016273;28;20224;-75
2022/03/31 04:27:08;;;;;;;2.00;1.77;;;6.80;91.70;6.20;96320.00;;;;5033586;28;20584;-75
2022/03/31 04:29:35;;;;;;;1.83;1.73;;;6.80;91.00;6.20;96319.00;;;;5033457;28;20248;-75
2022/03/31 04:32:03;;;;;;;3.33;2.30;;;6.80;92.00;6.20;96308.00;;;;5033546;28;20239;-74
2022/03/31 04:34:32;;;;;;;1.63;1.53;;;6.80;91.20;6.20;96307.00;;;;5016254;28;20232;-74
2022/03/31 04:36:59;;;;;;;2.73;2.00;;;6.80;91.60;6.10;96311.00;;;;5033233;28;20247;-74
2022/03/31 04:39:25;;;;;;;1.73;1.63;;;6.70;91.80;6.00;96318.00;;;;5033226;28;20216;-74
2022/03/31 04:41:52;;;;;;;1.17;1.17;;;6.70;92.90;6.00;96318.00;;;;5015903;28;20199;-74
2022/03/31 04:44:19;;;;;;;2.87;2.43;;;6.70;92.50;6.10;96312.00;;;;5033292;28;20299;-74
2022/03/31 04:46:46;;;;;;;1.40;1.37;;;6.70;92.20;6.00;96306.00;;;;5033202;28;20204;-74
2022/03/31 04:49:13;;;;;;;2.20;2.03;;;6.80;92.50;6.00;96310.00;;;;5032930;28;20201;-74
2022/03/31 04:51:42;;;;;;;1.30;1.30;;;6.70;92.40;6.00;96304.00;;;;5033242;28;20263;-74
2022/03/31 04:54:09;;;;;;;2.20;2.10;;;6.70;92.80;6.00;96307.00;;;;5033215;28;20222;-74
2022/03/31 04:56:35;;;;;;;2.50;2.40;;;6.70;93.10;6.10;96299.00;;;;5033089;28;20228;-74
2022/03/31 04:59:05;;;;;;;1.27;1.27;;;6.70;92.30;6.00;96304.00;;;;5032924;28;20667;-74
2022/03/31 05:01:31;;;;;;;1.77;1.67;;;6.70;92.70;6.10;96299.00;;;;5033051;28;20197;-74
2022/03/31 05:03:57;;;;;;;1.73;1.63;;;6.70;92.90;6.20;96294.00;;;;5032932;28;20237;-75
2022/03/31 05:06:25;;;;;;;2.30;2.10;;;6.80;92.20;6.10;96299.00;;;;5015489;28;20217;-74
2022/03/31 05:08:51;;;;;;;2.43;2.23;;;6.70;92.30;6.10;96293.00;;;;5015552;28;20231;-74
2022/03/31 05:11:18;;;;;;;2.67;2.47;;;6.70;91.70;6.10;96294.00;;;;5032756;28;20196;-73
2022/03/31 05:13:44;;;;;;;5.03;2.70;;;6.70;92.50;6.00;96293.00;;;;5032821;28;20306;-73
2022/03/31 05:16:11;;;;;;;2.53;2.30;;;6.70;93.10;5.90;96292.00;;;;5032665;28;20232;-74
2022/03/31 05:18:37;;;;;;;1.90;1.80;;;6.70;93.10;5.90;96290.00;;;;5033835;28;20204;-73
2022/03/31 05:21:04;;;;;;;5.33;2.83;;;6.70;93.20;5.80;96299.00;;;;5036002;28;20308;-74
2022/03/31 05:23:33;;;;;;;2.43;2.33;;;6.60;93.50;5.90;96296.00;;;;5036014;28;20233;-74
2022/03/31 05:26:02;;;;;;;2.63;2.47;;;6.60;93.70;5.90;96298.00;;;;5018627;28;20212;-73
2022/03/31 05:28:29;;;;;;;1.90;1.80;;;6.60;93.60;6.00;96297.00;;;;5035912;28;20211;-74
2022/03/31 05:30:55;;;;;;;3.27;1.53;;;6.70;93.60;6.00;96293.00;;;;5036066;28;20226;-74
2022/03/31 05:33:22;;;;;;;1.40;1.30;;;6.70;93.70;6.00;96290.00;;;;5035870;28;20222;-74
2022/03/31 05:35:48;;;;;;;2.40;2.27;;;6.70;93.90;6.00;96291.00;;;;5035769;28;20591;-74
2022/03/31 05:38:15;;;;;;;2.10;1.90;;;6.70;94.10;6.10;96289.00;;;;5035786;28;20226;-74
2022/03/31 05:40:43;;;;;;;1.40;1.40;;;6.80;93.30;6.00;96290.00;;;;5035832;28;20194;-74
2022/03/31 05:43:10;;;;;;;2.37;2.20;;;6.80;93.10;6.20;96287.00;;;;5018256;28;20225;-74
2022/03/31 05:45:36;;;;;;;1.97;1.87;;;6.80;93.40;6.30;96291.00;;;;5035674;28;20290;-75
2022/03/31 05:48:06;;;;;;;2.60;2.40;;;6.90;93.40;6.20;96288.00;;;;5035680;28;20195;-74
2022/03/31 05:50:32;;;;;;;1.87;1.73;;;6.90;92.50;6.20;96268.00;;;;5035547;28;20227;-74
2022/03/31 05:52:59;;;;;;;3.30;2.20;;;6.90;92.40;6.20;96285.00;;;;5035463;28;20306;-74
2022/03/31 05:55:28;;;;;;;3.03;2.10;;;6.90;92.20;6.10;96287.00;;;;5035499;28;20208;-73
2022/03/31 05:57:55;;;;;;;5.93;2.57;;;6.90;92.40;6.20;96280.00;;;;5035521;28;20202;-74
2022/03/31 06:00:22;;;;;;;2.23;2.03;;;6.90;92.80;6.20;96280.00;;;;5035476;28;20646;-74
2022/03/31 06:02:53;;;;;;;3.27;3.07;;;6.90;92.80;6.10;96288.00;;;;5035451;28;20246;-73
2022/03/31 06:05:20;;;;;;;2.20;2.03;;;6.80;92.40;6.30;96286.00;;;;5018143;28;20700;-74
2022/03/31 06:07:47;;;;;;;1.80;1.70;;;6.90;92.70;6.20;96267.00;;;;5035417;28;20302;-74
2022/03/31 06:10:16;;;;;;;2.27;2.17;;;6.90;92.30;6.40;96290.00;;;;5035163;28;20294;-75
2022/03/31 06:12:45;;;;;;;1.93;1.83;;;7.00;92.20;6.30;96290.00;;;;5035152;28;20668;-76
2022/03/31 06:15:15;;;;;;;1.57;1.50;;;7.00;91.20;6.40;96296.00;;;;5035398;28;20567;-76
2022/03/31 06:17:44;;;;;;;2.50;2.40;;;7.00;91.30;6.30;96289.00;;;;5017940;28;20694;-75
2022/03/31 06:20:12;;;;;;;2.17;2.07;;;7.00;91.00;6.20;96292.00;;;;5017840;28;20256;-76
2022/03/31 06:22:41;;;;;;;1.00;1.00;;;6.90;91.90;6.30;96286.00;;;;5035004;28;20761;-75
2022/03/31 06:25:10;;;;;;;1.00;1.00;;;7.00;91.70;6.30;96290.00;;;;5017515;28;20221;-75
2022/03/31 06:27:40;;;;;;;1.50;1.40;;;7.00;91.30;6.20;96279.00;;;;5035120;28;20174;-72
2022/03/31 06:30:07;;;;;;;3.03;2.83;;;7.00;91.40;6.40;96279.00;;;;5034510;28;20231;-74
2022/03/31 06:32:35;;;;;;;2.30;2.20;;;7.00;91.90;6.30;96285.00;;;;5017660;28;20275;-74
2022/03/31 06:35:04;;;;;;;2.87;1.80;;;7.00;92.20;6.40;96280.00;;;;5034746;28;20204;-74
2022/03/31 06:37:31;;;;;;;2.57;2.37;;;7.10;91.50;6.50;96287.00;;;;5017514;28;20669;-74
2022/03/31 06:40:00;;;;;;;1.60;1.50;;;7.10;91.10;6.60;96277.00;;;;5034854;28;20218;-74
2022/03/31 06:42:26;;;;;;;2.70;1.93;;;7.20;91.30;6.50;96272.00;;;;5034730;28;20223;-76
2022/03/31 06:44:53;;;;;;;2.30;2.20;;;7.20;90.50;6.50;96277.00;;;;5034811;28;20205;-74
2022/03/31 06:47:19;;;;;;;5.07;1.83;;;7.20;90.80;6.60;96256.00;;;;5035100;28;20203;-74
2022/03/31 06:49:46;;;;;;;1.40;1.40;;;7.30;90.30;6.60;96278.00;;;;5023683;28;20224;-75
2022/03/31 06:52:13;;;;;;;2.67;2.47;;;7.30;89.90;6.70;96280.00;;;;5021865;28;20241;-74
2022/03/31 06:54:39;;;;;;;3.17;2.97;;;7.30;90.60;6.70;96276.00;;;;5035466;28;20314;-74
2022/03/31 06:57:06;;;;;;;2.33;2.17;;;7.30;89.30;6.80;96283.00;;;;5034741;28;20197;-76
2022/03/31 06:59:33;;;;;;;1.33;1.30;;;7.40;89.30;6.80;96282.00;;;;5017392;28;20193;-73
2022/03/31 07:02:00;;;;;;;2.50;2.37;;;7.40;88.70;6.90;96280.00;;;;5034587;28;20217;-75
2022/03/31 07:04:26;;;;;;;1.90;1.80;;;7.50;87.90;6.90;96284.00;;;;5034617;28;20274;-77
2022/03/31 07:06:54;;;;;;;2.57;2.40;;;7.40;88.00;6.60;96286.00;;;;5034715;28;20209;-78
2022/03/31 07:09:20;;;;;;;1.87;1.73;;;7.40;87.60;6.70;96279.00;;;;5017378;28;20204;-76
2022/03/31 07:11:49;;;;;;;1.77;1.67;;;7.40;88.50;6.80;96277.00;;;;5034413;28;20204;-77
2022/03/31 07:14:18;;;;;;;2.17;2.07;;;7.40;88.40;6.80;96273.00;;;;5034528;28;20686;-77
2022/03/31 07:16:45;;;;;;;3.90;2.00;;;7.40;88.10;6.80;96263.00;;;;5034149;28;20211;-78
2022/03/31 07:19:11;;;;;;;1.87;1.77;;;7.50;88.10;6.80;96279.00;;;;5034936;28;20193;-77
2022/03/31 07:21:38;;;;;;;2.60;2.43;;;7.50;87.80;6.90;96271.00;;;;5034444;28;20220;-78
2022/03/31 07:24:07;;;;;;;2.07;1.80;;;7.50;87.90;7.10;96266.00;;;;5034565;28;20670;-77
2022/03/31 07:26:33;;;;;;;1.67;1.57;;;7.50;87.50;7.10;96262.00;;;;5034503;28;20256;-78
2022/03/31 07:29:00;;;;;;;1.33;1.30;;;7.60;86.50;7.20;96264.00;;;;5034573;28;20207;-77
2022/03/31 07:31:28;;;;;;;1.20;1.20;;;7.60;86.70;7.30;96260.00;;;;5017247;28;20208;-78
2022/03/31 07:33:55;;;;;;;2.20;2.00;;;7.80;85.50;7.20;96259.00;;;;5034544;28;20216;-77
2022/03/31 07:36:24;;;;;;;2.33;2.23;;;7.80;84.60;7.30;96265.00;;;;5034381;28;20198;-78
2022/03/31 07:38:51;;;;;;;1.60;1.50;;;7.80;84.30;7.20;96255.00;;;;5016839;28;20619;-75
2022/03/31 07:41:18;;;;;;;1.20;1.20;;;7.80;84.20;7.10;96256.00;;;;5034099;28;20315;-77
2022/03/31 07:43:45;;;;;;;1.40;1.40;;;7.80;84.80;7.30;96258.00;;;;5034221;28;20200;-75
2022/03/31 07:46:12;;;;;;;2.90;2.20;;;7.90;85.10;7.30;96262.00;;;;5034158;28;20279;-76
2022/03/31 07:48:39;;;;;;;3.10;2.23;;;7.90;84.40;7.20;96262.00;;;;5034629;28;20200;-74
2022/03/31 07:51:06;;;;;;;1.33;1.33;;;7.80;83.80;7.20;96252.00;;;;5035486;28;20201;-76
2022/03/31 07:53:35;;;;;;;2.10;2.00;;;7.80;84.10;7.20;96257.00;;;;5043517;28;20298;-76
2022/03/31 07:56:06;;;;;;;2.00;1.90;;;7.80;84.00;7.30;96259.00;;;;5047262;28;20261;-77
2022/03/31 07:58:36;;;;;;;2.07;1.97;;;7.90;84.00;7.50;96263.00;;;;5046825;28;20519;-77
2022/03/31 08:01:03;;;;;;;1.63;1.53;;;8.00;83.20;7.50;96268.00;;;;5034849;28;20231;-76
2022/03/31 08:03:32;;;;;;;2.37;2.27;;;8.00;82.50;7.50;96261.00;;;;5036187;28;20199;-77
2022/03/31 08:06:00;;;;;;;2.40;2.20;;;8.10;82.50;7.50;96262.00;;;;5034385;28;20196;-77
2022/03/31 08:08:28;;;;;;;2.13;1.90;;;8.10;83.10;7.50;96256.00;;;;5034348;28;20288;-77
2022/03/31 08:10:54;;;;;;;2.50;2.30;;;8.10;82.60;7.60;96250.00;;;;5034144;28;20659;-74
2022/03/31 08:13:26;;;;;;;3.03;2.23;;;8.10;82.00;7.70;96249.00;;;;5033264;28;20294;-75
2022/03/31 08:15:54;;;;;;;2.13;2.03;;;8.20;82.00;7.70;96250.00;;;;5033425;28;20635;-75
2022/03/31 08:18:25;;;;;;;2.30;2.10;;;8.30;81.50;7.90;96214.00;;;;5033431;28;20204;-76
2022/03/31 08:20:53;;;;;;;1.97;1.87;;;8.40;80.70;8.10;96246.00;;;;5033464;28;20577;-76
2022/03/31 08:23:19;;;;;;;1.67;1.57;;;8.50;80.20;8.20;96239.00;;;;5033370;28;20193;-76
2022/03/31 08:25:46;;;;;;;2.10;2.00;;;8.70;80.00;8.20;96246.00;;;;5033265;28;20220;-75
2022/03/31 08:28:12;;;;;;;1.30;1.30;;;8.70;79.60;8.50;96239.00;;;;5033285;28;20242;-76
2022/03/31 08:30:39;;;;;;;1.00;1.00;;;8.80;78.40;8.40;96238.00;;;;5033258;28;20198;-76
2022/03/31 08:33:07;;;;;;;2.17;2.03;;;8.90;78.10;8.30;96241.00;;;;5033115;28;20289;-74
2022/03/31 08:35:34;;;;;;;2.13;2.03;;;8.80;78.10;8.20;96244.00;;;;5033265;28;20212;-74
2022/03/31 08:38:03;;;;;;;1.67;1.47;;;8.80;78.50;8.30;96239.00;;;;5033282;28;20196;-74
2022/03/31 08:40:33;;;;;;;1.47;1.43;;;8.90;77.30;8.20;96240.00;;;;5033101;28;20334;-73
2022/03/31 08:43:02;;;;;;;1.60;1.60;;;8.80;77.90;8.20;96248.00;;;;5033186;28;20266;-74
2022/03/31 08:45:35;;;;;;;1.10;1.10;;;8.80;77.90;8.30;96233.00;;;;5015843;28;20738;-76
2022/03/31 08:48:04;;;;;;;1.27;1.27;;;8.80;77.60;8.60;96223.00;;;;5033302;28;20215;-76
2022/03/31 08:50:36;;;;;;;1.47;1.47;;;9.00;78.20;8.80;96231.00;;;;5015789;28;20204;-75
2022/03/31 08:53:05;;;;;;;1.43;1.43;;;9.20;77.20;9.10;96230.00;;;;5033242;28;20233;-75
2022/03/31 08:55:32;;;;;;;2.73;2.53;;;9.50;77.00;9.00;96230.00;;;;5036379;28;20243;-77
2022/03/31 08:57:58;;;;;;;1.20;1.20;;;9.50;74.90;8.90;96239.00;;;;5019004;28;20228;-78
2022/03/31 09:00:26;;;;;;;3.13;2.47;;;9.40;75.70;8.90;96223.00;;;;5036440;28;20273;-75
2022/03/31 09:02:57;;;;;;;1.30;1.30;;;9.40;75.40;9.30;96240.00;;;;5036379;28;20706;-75
2022/03/31 09:05:25;;;;;;;2.13;2.03;;;9.60;75.20;9.40;96221.00;;;;5019539;28;20284;-75
2022/03/31 09:07:55;;;;;;;3.50;2.53;;;9.80;73.70;9.40;96227.00;;;;5040804;28;20200;-75
2022/03/31 09:10:30;;;;;;;3.33;3.03;;;9.80;73.10;9.70;96220.00;;;;5042687;28;20209;-76
2022/03/31 09:12:59;;;;;;;2.33;2.17;;;10.00;73.00;9.90;96219.00;;;;5019713;28;20650;-76
2022/03/31 09:15:25;;;;;;;3.90;3.00;;;10.20;71.70;10.00;96218.00;;;;5036427;28;20213;-76
2022/03/31 09:17:57;;;;;;;0.93;0.93;;;10.40;71.40;10.10;96223.00;;;;5036027;28;20690;-76
2022/03/31 09:20:35;;;;;;;2.63;2.43;;;10.50;71.40;10.40;96220.00;;;;5035926;28;20263;-75
2022/03/31 09:23:03;;;;;;;1.93;1.83;;;10.70;70.70;10.40;96217.00;;;;5035961;28;20667;-74
2022/03/31 09:25:32;;;;;;;2.73;2.57;;;10.70;68.30;10.50;96216.00;;;;5018448;28;20236;-76
2022/03/31 09:28:01;;;;;;;2.73;2.00;;;10.90;68.90;10.70;96216.00;;;;5036110;28;20254;-75
2022/03/31 09:30:31;;;;;;;2.00;1.90;;;11.00;69.30;10.80;96230.00;;;;5035909;28;20224;-75
2022/03/31 09:33:02;;;;;;;1.63;1.53;;;11.10;67.20;11.00;96211.00;;;;5036055;28;20231;-75
2022/03/31 09:35:29;;;;;;;2.63;2.43;;;11.30;68.10;11.20;96219.00;;;;5035865;28;20212;-76
2022/03/31 09:37:55;;;;;;;2.40;1.60;;;11.40;67.00;11.20;96203.00;;;;5035688;28;20221;-76
2022/03/31 09:40:23;;;;;;;3.30;3.10;;;11.60;64.60;11.30;96205.00;;;;5035977;28;20495;-76
2022/03/31 09:42:58;;;;;;;2.00;1.90;;;11.60;65.10;11.20;96201.00;;;;5035667;28;20215;-74
2022/03/31 09:45:38;;;;;;;2.17;2.03;;;11.60;63.10;11.20;96203.00;;;;5018136;28;20212;-75
2022/03/31 09:48:17;;;;;;;2.07;1.97;;;11.60;62.20;11.00;96209.00;;;;5035577;28;20204;-76
2022/03/31 09:50:44;;;;;;;1.80;1.70;;;11.40;61.70;10.80;96206.00;;;;5035610;28;20303;-75
2022/03/31 09:53:12;;;;;;;2.83;2.63;;;11.30;61.80;10.60;96209.00;;;;5035477;28;20267;-77
2022/03/31 09:55:43;;;;;;;2.33;2.13;;;11.10;62.40;10.60;96209.00;;;;5035563;28;20208;-80
2022/03/31 09:58:18;;;;;;;3.97;2.80;;;11.10;63.00;10.70;96205.00;;;;5035499;28;20287;-76
2022/03/31 10:00:46;;;;;;;2.67;2.47;;;11.10;63.00;10.60;96202.00;;;;5018034;28;20686;-76
2022/03/31 10:03:14;;;;;;;3.77;2.53;;;11.10;61.00;10.60;96194.00;;;;5035377;28;20676;-77
2022/03/31 10:05:45;;;;;;;1.33;1.33;;;11.00;62.40;10.60;96201.00;;;;5034235;28;20662;-77
2022/03/31 10:08:12;;;;;;;3.17;2.87;;;11.00;63.10;10.60;96201.00;;;;5018046;28;20228;-76
2022/03/31 10:10:40;;;;;;;1.40;1.40;;;11.00;63.20;10.50;96188.00;;;;5035245;28;20212;-77
2022/03/31 10:13:18;;;;;;;3.73;3.00;;;11.00;62.80;10.50;96189.00;;;;5018215;28;20667;-76
2022/03/31 10:15:46;;;;;;;1.70;1.60;;;11.00;63.30;10.70;96182.00;;;;5036151;28;20220;-77
2022/03/31 10:18:15;;;;;;;2.50;2.20;;;11.10;62.60;10.80;96199.00;;;;5018179;28;20220;-76
2022/03/31 10:20:56;;;;;;;2.47;2.27;;;11.10;63.40;10.60;96191.00;;;;5018158;28;20233;-75
2022/03/31 10:26:25;;;;;;;1.87;1.40;;;11.10;63.00;10.80;96196.00;;;;5035017;28;20223;-74
2022/03/31 10:28:57;;;;;;;4.13;2.93;;;11.20;63.60;10.80;96177.00;;;;5034942;28;20224;-73
2022/03/31 10:31:34;;;;;;;2.33;2.13;;;11.20;62.20;10.70;96192.00;;;;5034950;28;20201;-74
2022/03/31 10:34:02;;;;;;;1.23;1.23;;;11.20;61.60;10.50;96193.00;;;;5035008;28;20227;-74
2022/03/31 10:36:38;;;;;;;1.73;1.63;;;11.00;62.00;10.60;96185.00;;;;5034882;28;20232;-73
2022/03/31 10:39:08;;;;;;;2.10;2.00;;;11.00;63.30;10.70;96186.00;;;;5017463;28;20606;-74
2022/03/31 10:41:37;;;;;;;2.77;2.50;;;11.10;63.40;10.90;96178.00;;;;5034682;28;20212;-74
2022/03/31 10:44:18;;;;;;;1.80;1.70;;;11.30;62.90;11.00;96173.00;;;;5034824;28;20769;-77
2022/03/31 10:46:58;;;;;;;1.60;1.53;;;11.30;63.40;11.00;96177.00;;;;5034795;28;20209;-76
2022/03/31 10:49:25;;;;;;;1.43;1.43;;;11.40;61.50;11.00;96179.00;;;;5034692;28;20234;-78
2022/03/31 10:51:51;;;;;;;1.40;1.40;;;11.40;63.00;10.80;96176.00;;;;5034633;28;20695;-75
2022/03/31 10:54:30;;;;;;;2.80;2.23;;;11.30;61.50;11.00;96170.00;;;;5034439;28;20593;-75
2022/03/31 10:57:12;;;;;;;1.50;1.43;;;11.30;62.00;10.90;96175.00;;;;5034700;28;20196;-75
2022/03/31 10:59:44;;;;;;;2.10;2.00;;;11.30;61.60;11.00;96168.00;;;;5034691;28;20572;-76
2022/03/31 11:02:15;;;;;;;2.07;1.97;;;11.40;61.60;11.20;96171.00;;;;5034492;28;20238;-76
2022/03/31 11:04:48;;;;;;;2.33;2.13;;;11.50;63.10;11.20;96160.00;;;;5034548;28;20258;-74
2022/03/31 11:07:18;;;;;;;1.97;1.87;;;11.60;61.30;11.20;96147.00;;;;5034576;28;20228;-77
2022/03/31 11:09:45;;;;;;;2.03;1.93;;;11.50;60.00;11.10;96161.00;;;;5034452;28;20232;-79
2022/03/31 11:12:28;;;;;;;2.10;2.00;;;11.50;60.80;11.10;96167.00;;;;5034314;28;20628;-73
2022/03/31 11:14:59;;;;;;;1.63;1.53;;;11.50;61.30;11.20;96166.00;;;;5034416;28;20628;-75
2022/03/31 11:17:27;;;;;;;1.60;1.50;;;11.60;59.80;11.30;96151.00;;;;5034158;28;20200;-73